sensor_id;sensor_type;location;lat;lon;timestamp;P1;durP1;ratioP1;P2;durP2;ratioP2
46705;SDS011;33519;50.712;7.124;2022-12-18T00:01:03;31.40;;;17.35;;
46705;SDS011;33519;50.712;7.124;2022-12-18T00:03:35;33.33;;;16.35;;
46705;SDS011;33519;50.712;7.124;2022-12-18T00:06:03;34.75;;;16.13;;
46705;SDS011;33519;50.712;7.124;2022-12-18T00:08:29;37.40;;;18.00;;
46705;SDS011;33519;50.712;7.124;2022-12-18T00:11:02;34.03;;;16.50;;
46705;SDS011;33519;50.712;7.124;2022-12-18T00:13:32;30.65;;;15.48;;
46705;SDS011;33519;50.712;7.124;2022-12-18T00:16:07;42.88;;;19.73;;
46705;SDS011;33519;50.712;7.124;2022-12-18T00:18:35;39.72;;;17.60;;
46705;SDS011;33519;50.712;7.124;2022-12-18T00:21:04;34.10;;;18.58;;
46705;SDS011;33519;50.712;7.124;2022-12-18T00:23:32;39.70;;;18.95;;
46705;SDS011;33519;50.712;7.124;2022-12-18T00:26:02;34.60;;;16.02;;
46705;SDS011;33519;50.712;7.124;2022-12-18T00:28:31;38.63;;;17.83;;
46705;SDS011;33519;50.712;7.124;2022-12-18T00:31:02;41.67;;;18.80;;
46705;SDS011;33519;50.712;7.124;2022-12-18T00:33:33;38.13;;;18.30;;
46705;SDS011;33519;50.712;7.124;2022-12-18T00:36:01;37.85;;;19.15;;
46705;SDS011;33519;50.712;7.124;2022-12-18T00:38:29;33.72;;;16.88;;
46705;SDS011;33519;50.712;7.124;2022-12-18T00:40:56;39.10;;;18.20;;
46705;SDS011;33519;50.712;7.124;2022-12-18T00:43:22;38.72;;;17.80;;
46705;SDS011;33519;50.712;7.124;2022-12-18T00:45:49;34.80;;;16.40;;
46705;SDS011;33519;50.712;7.124;2022-12-18T00:48:16;38.30;;;18.77;;
46705;SDS011;33519;50.712;7.124;2022-12-18T00:50:43;36.20;;;17.27;;
46705;SDS011;33519;50.712;7.124;2022-12-18T00:53:10;35.85;;;17.33;;
46705;SDS011;33519;50.712;7.124;2022-12-18T00:55:41;39.72;;;17.63;;
46705;SDS011;33519;50.712;7.124;2022-12-18T00:58:09;30.20;;;16.33;;
46705;SDS011;33519;50.712;7.124;2022-12-18T01:00:37;36.83;;;18.05;;
46705;SDS011;33519;50.712;7.124;2022-12-18T01:03:04;39.60;;;17.58;;
46705;SDS011;33519;50.712;7.124;2022-12-18T01:05:31;34.30;;;17.45;;
46705;SDS011;33519;50.712;7.124;2022-12-18T01:07:59;43.38;;;18.45;;
46705;SDS011;33519;50.712;7.124;2022-12-18T01:10:26;42.95;;;18.10;;
46705;SDS011;33519;50.712;7.124;2022-12-18T01:12:53;46.47;;;20.83;;
46705;SDS011;33519;50.712;7.124;2022-12-18T01:15:19;44.15;;;20.25;;
46705;SDS011;33519;50.712;7.124;2022-12-18T01:17:46;40.67;;;18.13;;
46705;SDS011;33519;50.712;7.124;2022-12-18T01:20:13;41.85;;;19.15;;
46705;SDS011;33519;50.712;7.124;2022-12-18T01:22:40;40.17;;;20.30;;
46705;SDS011;33519;50.712;7.124;2022-12-18T01:25:06;39.00;;;18.13;;
46705;SDS011;33519;50.712;7.124;2022-12-18T01:27:33;40.55;;;19.77;;
46705;SDS011;33519;50.712;7.124;2022-12-18T01:30:00;34.15;;;17.52;;
46705;SDS011;33519;50.712;7.124;2022-12-18T01:32:29;38.10;;;17.02;;
46705;SDS011;33519;50.712;7.124;2022-12-18T01:34:57;45.35;;;20.52;;
46705;SDS011;33519;50.712;7.124;2022-12-18T01:37:23;34.88;;;18.98;;
46705;SDS011;33519;50.712;7.124;2022-12-18T01:39:50;39.53;;;18.95;;
46705;SDS011;33519;50.712;7.124;2022-12-18T01:42:20;37.58;;;18.48;;
46705;SDS011;33519;50.712;7.124;2022-12-18T01:50:13;35.30;;;18.42;;
46705;SDS011;33519;50.712;7.124;2022-12-18T01:52:43;36.65;;;17.27;;
46705;SDS011;33519;50.712;7.124;2022-12-18T01:55:14;33.63;;;16.38;;
46705;SDS011;33519;50.712;7.124;2022-12-18T01:57:44;39.28;;;18.42;;
46705;SDS011;33519;50.712;7.124;2022-12-18T02:00:14;36.83;;;18.23;;
46705;SDS011;33519;50.712;7.124;2022-12-18T02:02:43;44.88;;;19.45;;
46705;SDS011;33519;50.712;7.124;2022-12-18T02:05:11;45.28;;;20.08;;
46705;SDS011;33519;50.712;7.124;2022-12-18T02:10:27;41.20;;;20.48;;
46705;SDS011;33519;50.712;7.124;2022-12-18T02:15:43;41.03;;;18.08;;
46705;SDS011;33519;50.712;7.124;2022-12-18T02:24:05;31.83;;;15.43;;
46705;SDS011;33519;50.712;7.124;2022-12-18T02:26:44;35.22;;;16.98;;
46705;SDS011;33519;50.712;7.124;2022-12-18T02:29:26;35.50;;;16.58;;
46705;SDS011;33519;50.712;7.124;2022-12-18T02:32:06;39.90;;;16.98;;
46705;SDS011;33519;50.712;7.124;2022-12-18T02:34:38;45.70;;;18.45;;
46705;SDS011;33519;50.712;7.124;2022-12-18T02:37:07;35.28;;;18.08;;
46705;SDS011;33519;50.712;7.124;2022-12-18T02:39:38;40.88;;;18.27;;
46705;SDS011;33519;50.712;7.124;2022-12-18T02:42:07;41.83;;;15.98;;
46705;SDS011;33519;50.712;7.124;2022-12-18T02:44:44;38.45;;;18.27;;
46705;SDS011;33519;50.712;7.124;2022-12-18T02:47:13;43.58;;;21.00;;
46705;SDS011;33519;50.712;7.124;2022-12-18T02:52:45;50.40;;;19.92;;
46705;SDS011;33519;50.712;7.124;2022-12-18T03:01:07;35.90;;;17.10;;
46705;SDS011;33519;50.712;7.124;2022-12-18T03:03:45;34.95;;;17.10;;
46705;SDS011;33519;50.712;7.124;2022-12-18T03:06:29;36.03;;;17.30;;
46705;SDS011;33519;50.712;7.124;2022-12-18T03:09:00;36.13;;;15.95;;
46705;SDS011;33519;50.712;7.124;2022-12-18T03:11:33;35.08;;;17.40;;
46705;SDS011;33519;50.712;7.124;2022-12-18T03:16:49;41.22;;;18.35;;
46705;SDS011;33519;50.712;7.124;2022-12-18T03:21:51;37.95;;;18.83;;
46705;SDS011;33519;50.712;7.124;2022-12-18T03:24:21;36.50;;;17.85;;
46705;SDS011;33519;50.712;7.124;2022-12-18T03:26:51;40.60;;;18.10;;
46705;SDS011;33519;50.712;7.124;2022-12-18T03:29:21;44.05;;;20.15;;
46705;SDS011;33519;50.712;7.124;2022-12-18T03:32:10;36.97;;;20.13;;
46705;SDS011;33519;50.712;7.124;2022-12-18T03:37:11;39.88;;;17.23;;
46705;SDS011;33519;50.712;7.124;2022-12-18T03:44:51;26.55;;;11.50;;
46705;SDS011;33519;50.712;7.124;2022-12-18T03:47:38;29.95;;;13.15;;
46705;SDS011;33519;50.712;7.124;2022-12-18T03:50:16;42.50;;;18.75;;
46705;SDS011;33519;50.712;7.124;2022-12-18T03:55:53;32.60;;;15.63;;
46705;SDS011;33519;50.712;7.124;2022-12-18T03:58:23;31.75;;;15.45;;
46705;SDS011;33519;50.712;7.124;2022-12-18T04:00:55;36.95;;;17.20;;
46705;SDS011;33519;50.712;7.124;2022-12-18T04:03:25;39.42;;;17.33;;
46705;SDS011;33519;50.712;7.124;2022-12-18T04:05:54;32.67;;;14.02;;
46705;SDS011;33519;50.712;7.124;2022-12-18T04:08:22;36.08;;;18.75;;
46705;SDS011;33519;50.712;7.124;2022-12-18T04:10:50;41.70;;;18.35;;
46705;SDS011;33519;50.712;7.124;2022-12-18T04:13:24;40.70;;;17.52;;
46705;SDS011;33519;50.712;7.124;2022-12-18T04:16:03;37.63;;;17.33;;
46705;SDS011;33519;50.712;7.124;2022-12-18T04:18:30;31.92;;;14.48;;
46705;SDS011;33519;50.712;7.124;2022-12-18T04:20:57;34.65;;;17.55;;
46705;SDS011;33519;50.712;7.124;2022-12-18T04:23:24;31.15;;;16.45;;
46705;SDS011;33519;50.712;7.124;2022-12-18T04:25:50;36.45;;;19.38;;
46705;SDS011;33519;50.712;7.124;2022-12-18T04:28:17;32.65;;;15.65;;
46705;SDS011;33519;50.712;7.124;2022-12-18T04:30:44;44.80;;;19.80;;
46705;SDS011;33519;50.712;7.124;2022-12-18T04:33:12;40.90;;;19.63;;
46705;SDS011;33519;50.712;7.124;2022-12-18T04:35:40;36.92;;;18.00;;
46705;SDS011;33519;50.712;7.124;2022-12-18T04:38:07;41.80;;;19.02;;
46705;SDS011;33519;50.712;7.124;2022-12-18T04:40:36;46.47;;;18.80;;
46705;SDS011;33519;50.712;7.124;2022-12-18T04:43:03;41.90;;;21.40;;
46705;SDS011;33519;50.712;7.124;2022-12-18T04:45:31;43.03;;;19.58;;
46705;SDS011;33519;50.712;7.124;2022-12-18T04:47:58;37.88;;;18.63;;
46705;SDS011;33519;50.712;7.124;2022-12-18T04:50:26;43.95;;;18.73;;
46705;SDS011;33519;50.712;7.124;2022-12-18T04:52:53;42.80;;;18.35;;
46705;SDS011;33519;50.712;7.124;2022-12-18T04:55:20;43.75;;;20.40;;
46705;SDS011;33519;50.712;7.124;2022-12-18T04:57:50;39.33;;;19.05;;
46705;SDS011;33519;50.712;7.124;2022-12-18T05:00:17;43.42;;;20.60;;
46705;SDS011;33519;50.712;7.124;2022-12-18T05:02:44;41.85;;;20.02;;
46705;SDS011;33519;50.712;7.124;2022-12-18T05:05:11;43.78;;;18.85;;
46705;SDS011;33519;50.712;7.124;2022-12-18T05:07:38;37.80;;;19.95;;
46705;SDS011;33519;50.712;7.124;2022-12-18T05:10:05;38.25;;;19.17;;
46705;SDS011;33519;50.712;7.124;2022-12-18T05:12:32;47.58;;;21.25;;
46705;SDS011;33519;50.712;7.124;2022-12-18T05:14:58;38.25;;;18.95;;
46705;SDS011;33519;50.712;7.124;2022-12-18T05:17:25;40.15;;;19.63;;
46705;SDS011;33519;50.712;7.124;2022-12-18T05:19:52;38.40;;;19.20;;
46705;SDS011;33519;50.712;7.124;2022-12-18T05:22:18;33.97;;;17.27;;
46705;SDS011;33519;50.712;7.124;2022-12-18T05:24:49;35.63;;;18.52;;
46705;SDS011;33519;50.712;7.124;2022-12-18T05:27:15;17.23;;;7.95;;
46705;SDS011;33519;50.712;7.124;2022-12-18T05:29:42;34.67;;;15.27;;
46705;SDS011;33519;50.712;7.124;2022-12-18T05:32:09;38.60;;;18.85;;
46705;SDS011;33519;50.712;7.124;2022-12-18T05:34:35;31.90;;;17.70;;
46705;SDS011;33519;50.712;7.124;2022-12-18T05:37:02;37.15;;;18.85;;
46705;SDS011;33519;50.712;7.124;2022-12-18T05:39:29;40.55;;;17.77;;
46705;SDS011;33519;50.712;7.124;2022-12-18T05:41:55;42.47;;;19.35;;
46705;SDS011;33519;50.712;7.124;2022-12-18T05:44:22;33.20;;;16.63;;
46705;SDS011;33519;50.712;7.124;2022-12-18T05:46:49;46.95;;;19.52;;
46705;SDS011;33519;50.712;7.124;2022-12-18T05:49:15;41.55;;;18.17;;
46705;SDS011;33519;50.712;7.124;2022-12-18T05:51:42;33.50;;;18.58;;
46705;SDS011;33519;50.712;7.124;2022-12-18T05:54:09;36.42;;;17.42;;
46705;SDS011;33519;50.712;7.124;2022-12-18T05:56:35;48.35;;;20.38;;
46705;SDS011;33519;50.712;7.124;2022-12-18T05:59:02;40.85;;;17.77;;
46705;SDS011;33519;50.712;7.124;2022-12-18T06:01:29;39.35;;;18.88;;
46705;SDS011;33519;50.712;7.124;2022-12-18T06:03:56;36.38;;;16.38;;
46705;SDS011;33519;50.712;7.124;2022-12-18T06:06:23;46.22;;;20.85;;
46705;SDS011;33519;50.712;7.124;2022-12-18T06:08:52;41.33;;;19.10;;
46705;SDS011;33519;50.712;7.124;2022-12-18T06:11:22;37.58;;;19.42;;
46705;SDS011;33519;50.712;7.124;2022-12-18T06:13:51;42.50;;;17.58;;
46705;SDS011;33519;50.712;7.124;2022-12-18T06:16:23;43.47;;;18.95;;
46705;SDS011;33519;50.712;7.124;2022-12-18T06:18:50;36.35;;;17.42;;
46705;SDS011;33519;50.712;7.124;2022-12-18T06:21:17;42.30;;;16.33;;
46705;SDS011;33519;50.712;7.124;2022-12-18T06:23:44;34.72;;;17.65;;
46705;SDS011;33519;50.712;7.124;2022-12-18T06:26:11;26.73;;;14.60;;
46705;SDS011;33519;50.712;7.124;2022-12-18T06:28:38;35.38;;;18.00;;
46705;SDS011;33519;50.712;7.124;2022-12-18T06:31:05;30.85;;;16.38;;
46705;SDS011;33519;50.712;7.124;2022-12-18T06:33:33;33.65;;;16.42;;
46705;SDS011;33519;50.712;7.124;2022-12-18T06:36:02;36.53;;;17.80;;
46705;SDS011;33519;50.712;7.124;2022-12-18T06:38:31;34.65;;;15.20;;
46705;SDS011;33519;50.712;7.124;2022-12-18T06:40:58;26.58;;;13.82;;
46705;SDS011;33519;50.712;7.124;2022-12-18T06:43:25;32.83;;;16.42;;
46705;SDS011;33519;50.712;7.124;2022-12-18T06:45:57;41.80;;;18.88;;
46705;SDS011;33519;50.712;7.124;2022-12-18T06:48:39;28.90;;;16.02;;
46705;SDS011;33519;50.712;7.124;2022-12-18T06:51:06;34.72;;;16.00;;
46705;SDS011;33519;50.712;7.124;2022-12-18T06:53:33;31.88;;;13.68;;
46705;SDS011;33519;50.712;7.124;2022-12-18T06:56:01;42.30;;;18.17;;
46705;SDS011;33519;50.712;7.124;2022-12-18T06:58:35;19.38;;;12.40;;
46705;SDS011;33519;50.712;7.124;2022-12-18T07:01:02;37.05;;;17.80;;
46705;SDS011;33519;50.712;7.124;2022-12-18T07:03:31;29.85;;;16.02;;
46705;SDS011;33519;50.712;7.124;2022-12-18T07:05:58;35.58;;;15.93;;
46705;SDS011;33519;50.712;7.124;2022-12-18T07:08:25;36.00;;;17.42;;
46705;SDS011;33519;50.712;7.124;2022-12-18T07:10:52;37.33;;;18.05;;
46705;SDS011;33519;50.712;7.124;2022-12-18T07:13:21;32.35;;;15.82;;
46705;SDS011;33519;50.712;7.124;2022-12-18T07:15:48;30.13;;;13.85;;
46705;SDS011;33519;50.712;7.124;2022-12-18T07:18:24;35.33;;;17.15;;
46705;SDS011;33519;50.712;7.124;2022-12-18T07:20:51;40.53;;;18.00;;
46705;SDS011;33519;50.712;7.124;2022-12-18T07:23:17;36.33;;;17.40;;
46705;SDS011;33519;50.712;7.124;2022-12-18T07:25:46;32.47;;;15.68;;
46705;SDS011;33519;50.712;7.124;2022-12-18T07:28:12;32.88;;;16.15;;
46705;SDS011;33519;50.712;7.124;2022-12-18T07:30:42;31.45;;;16.15;;
46705;SDS011;33519;50.712;7.124;2022-12-18T07:33:20;37.45;;;16.63;;
46705;SDS011;33519;50.712;7.124;2022-12-18T07:35:47;32.35;;;16.70;;
46705;SDS011;33519;50.712;7.124;2022-12-18T07:38:13;30.60;;;15.55;;
46705;SDS011;33519;50.712;7.124;2022-12-18T07:40:40;30.77;;;14.68;;
46705;SDS011;33519;50.712;7.124;2022-12-18T07:43:07;30.88;;;15.27;;
46705;SDS011;33519;50.712;7.124;2022-12-18T07:45:33;37.60;;;16.45;;
46705;SDS011;33519;50.712;7.124;2022-12-18T07:48:00;24.52;;;12.23;;
46705;SDS011;33519;50.712;7.124;2022-12-18T07:50:27;31.80;;;15.15;;
46705;SDS011;33519;50.712;7.124;2022-12-18T07:52:53;23.00;;;11.93;;
46705;SDS011;33519;50.712;7.124;2022-12-18T07:55:20;27.80;;;14.15;;
46705;SDS011;33519;50.712;7.124;2022-12-18T07:57:47;28.38;;;15.57;;
46705;SDS011;33519;50.712;7.124;2022-12-18T08:00:17;31.60;;;15.55;;
46705;SDS011;33519;50.712;7.124;2022-12-18T08:02:44;30.15;;;16.95;;
46705;SDS011;33519;50.712;7.124;2022-12-18T08:05:11;33.60;;;15.07;;
46705;SDS011;33519;50.712;7.124;2022-12-18T08:07:38;29.48;;;13.57;;
46705;SDS011;33519;50.712;7.124;2022-12-18T08:10:04;30.38;;;15.63;;
46705;SDS011;33519;50.712;7.124;2022-12-18T08:12:32;45.63;;;19.02;;
46705;SDS011;33519;50.712;7.124;2022-12-18T08:14:58;29.27;;;14.00;;
46705;SDS011;33519;50.712;7.124;2022-12-18T08:17:25;29.63;;;14.98;;
46705;SDS011;33519;50.712;7.124;2022-12-18T08:19:52;25.98;;;13.75;;
46705;SDS011;33519;50.712;7.124;2022-12-18T08:22:18;31.58;;;15.35;;
46705;SDS011;33519;50.712;7.124;2022-12-18T08:24:45;32.58;;;15.95;;
46705;SDS011;33519;50.712;7.124;2022-12-18T08:27:12;32.80;;;16.38;;
46705;SDS011;33519;50.712;7.124;2022-12-18T08:29:54;27.05;;;12.95;;
46705;SDS011;33519;50.712;7.124;2022-12-18T08:32:21;30.38;;;14.82;;
46705;SDS011;33519;50.712;7.124;2022-12-18T08:34:48;30.02;;;14.85;;
46705;SDS011;33519;50.712;7.124;2022-12-18T08:37:17;28.53;;;14.93;;
46705;SDS011;33519;50.712;7.124;2022-12-18T08:39:44;29.13;;;14.55;;
46705;SDS011;33519;50.712;7.124;2022-12-18T08:42:10;26.92;;;13.32;;
46705;SDS011;33519;50.712;7.124;2022-12-18T08:45:00;32.78;;;14.02;;
46705;SDS011;33519;50.712;7.124;2022-12-18T08:47:27;27.30;;;14.82;;
46705;SDS011;33519;50.712;7.124;2022-12-18T08:49:53;27.30;;;13.70;;
46705;SDS011;33519;50.712;7.124;2022-12-18T08:52:20;36.25;;;16.55;;
46705;SDS011;33519;50.712;7.124;2022-12-18T08:54:47;23.05;;;12.85;;
46705;SDS011;33519;50.712;7.124;2022-12-18T08:57:14;30.65;;;14.48;;
46705;SDS011;33519;50.712;7.124;2022-12-18T08:59:40;27.30;;;13.05;;
46705;SDS011;33519;50.712;7.124;2022-12-18T09:02:10;14.07;;;8.45;;
46705;SDS011;33519;50.712;7.124;2022-12-18T09:04:38;24.40;;;13.00;;
46705;SDS011;33519;50.712;7.124;2022-12-18T09:07:06;25.00;;;12.65;;
46705;SDS011;33519;50.712;7.124;2022-12-18T09:09:32;27.02;;;12.95;;
46705;SDS011;33519;50.712;7.124;2022-12-18T09:11:59;27.17;;;13.13;;
46705;SDS011;33519;50.712;7.124;2022-12-18T09:14:26;25.00;;;12.65;;
46705;SDS011;33519;50.712;7.124;2022-12-18T09:16:53;24.30;;;12.93;;
46705;SDS011;33519;50.712;7.124;2022-12-18T09:19:22;10.00;;;6.93;;
46705;SDS011;33519;50.712;7.124;2022-12-18T09:21:49;23.70;;;9.68;;
46705;SDS011;33519;50.712;7.124;2022-12-18T09:24:19;23.27;;;11.50;;
46705;SDS011;33519;50.712;7.124;2022-12-18T09:26:52;28.13;;;13.05;;
46705;SDS011;33519;50.712;7.124;2022-12-18T09:29:23;19.08;;;9.07;;
46705;SDS011;33519;50.712;7.124;2022-12-18T09:31:50;20.05;;;10.10;;
46705;SDS011;33519;50.712;7.124;2022-12-18T09:34:17;18.73;;;11.00;;
46705;SDS011;33519;50.712;7.124;2022-12-18T09:36:44;23.02;;;11.50;;
46705;SDS011;33519;50.712;7.124;2022-12-18T09:39:12;30.58;;;12.00;;
46705;SDS011;33519;50.712;7.124;2022-12-18T09:41:40;25.60;;;12.70;;
46705;SDS011;33519;50.712;7.124;2022-12-18T09:47:10;22.98;;;13.05;;
46705;SDS011;33519;50.712;7.124;2022-12-18T09:49:42;23.25;;;12.57;;
46705;SDS011;33519;50.712;7.124;2022-12-18T09:52:26;21.40;;;10.85;;
46705;SDS011;33519;50.712;7.124;2022-12-18T09:55:10;28.33;;;12.27;;
46705;SDS011;33519;50.712;7.124;2022-12-18T10:00:56;23.02;;;12.48;;
46705;SDS011;33519;50.712;7.124;2022-12-18T10:03:23;25.80;;;14.65;;
46705;SDS011;33519;50.712;7.124;2022-12-18T10:19:47;25.63;;;11.85;;
46705;SDS011;33519;50.712;7.124;2022-12-18T10:22:25;26.50;;;15.07;;
46705;SDS011;33519;50.712;7.124;2022-12-18T10:27:30;21.42;;;11.63;;
46705;SDS011;33519;50.712;7.124;2022-12-18T10:29:58;22.88;;;11.65;;
46705;SDS011;33519;50.712;7.124;2022-12-18T10:32:33;23.02;;;12.63;;
46705;SDS011;33519;50.712;7.124;2022-12-18T10:35:01;20.60;;;10.27;;
46705;SDS011;33519;50.712;7.124;2022-12-18T10:37:29;23.92;;;12.05;;
46705;SDS011;33519;50.712;7.124;2022-12-18T10:42:57;21.00;;;11.73;;
46705;SDS011;33519;50.712;7.124;2022-12-18T10:45:37;24.02;;;12.85;;
46705;SDS011;33519;50.712;7.124;2022-12-18T10:48:08;26.38;;;13.57;;
46705;SDS011;33519;50.712;7.124;2022-12-18T10:50:46;27.85;;;12.88;;
46705;SDS011;33519;50.712;7.124;2022-12-18T10:53:36;23.85;;;13.77;;
46705;SDS011;33519;50.712;7.124;2022-12-18T10:56:04;25.13;;;13.18;;
46705;SDS011;33519;50.712;7.124;2022-12-18T10:58:33;24.30;;;14.30;;
46705;SDS011;33519;50.712;7.124;2022-12-18T11:01:03;23.75;;;11.13;;
46705;SDS011;33519;50.712;7.124;2022-12-18T11:03:31;25.48;;;14.02;;
46705;SDS011;33519;50.712;7.124;2022-12-18T11:08:32;25.80;;;12.63;;
46705;SDS011;33519;50.712;7.124;2022-12-18T11:10:59;24.50;;;12.45;;
46705;SDS011;33519;50.712;7.124;2022-12-18T11:13:27;20.63;;;11.27;;
46705;SDS011;33519;50.712;7.124;2022-12-18T11:15:56;22.73;;;13.25;;
46705;SDS011;33519;50.712;7.124;2022-12-18T11:18:27;27.23;;;14.52;;
46705;SDS011;33519;50.712;7.124;2022-12-18T11:20:59;24.40;;;13.45;;
46705;SDS011;33519;50.712;7.124;2022-12-18T11:23:35;25.98;;;12.80;;
46705;SDS011;33519;50.712;7.124;2022-12-18T11:26:04;27.00;;;15.55;;
46705;SDS011;33519;50.712;7.124;2022-12-18T11:28:39;20.02;;;10.50;;
46705;SDS011;33519;50.712;7.124;2022-12-18T11:31:26;19.25;;;10.48;;
46705;SDS011;33519;50.712;7.124;2022-12-18T11:34:01;28.70;;;14.07;;
46705;SDS011;33519;50.712;7.124;2022-12-18T11:36:54;28.08;;;15.13;;
46705;SDS011;33519;50.712;7.124;2022-12-18T11:42:14;26.58;;;14.15;;
46705;SDS011;33519;50.712;7.124;2022-12-18T11:44:57;25.85;;;14.85;;
46705;SDS011;33519;50.712;7.124;2022-12-18T11:47:34;21.08;;;12.50;;
46705;SDS011;33519;50.712;7.124;2022-12-18T11:50:23;31.38;;;16.92;;
46705;SDS011;33519;50.712;7.124;2022-12-18T11:53:02;22.95;;;13.38;;
46705;SDS011;33519;50.712;7.124;2022-12-18T11:55:36;21.27;;;12.18;;
46705;SDS011;33519;50.712;7.124;2022-12-18T12:01:28;28.52;;;16.77;;
46705;SDS011;33519;50.712;7.124;2022-12-18T12:07:13;27.95;;;13.48;;
46705;SDS011;33519;50.712;7.124;2022-12-18T12:10:04;25.45;;;16.38;;
46705;SDS011;33519;50.712;7.124;2022-12-18T12:21:55;30.30;;;16.85;;
46705;SDS011;33519;50.712;7.124;2022-12-18T12:27:25;36.88;;;15.05;;
46705;SDS011;33519;50.712;7.124;2022-12-18T12:30:32;28.50;;;16.65;;
46705;SDS011;33519;50.712;7.124;2022-12-18T12:33:26;27.52;;;15.45;;
46705;SDS011;33519;50.712;7.124;2022-12-18T12:38:36;30.88;;;17.58;;
46705;SDS011;33519;50.712;7.124;2022-12-18T12:41:17;40.00;;;18.95;;
46705;SDS011;33519;50.712;7.124;2022-12-18T12:44:07;39.38;;;15.60;;
46705;SDS011;33519;50.712;7.124;2022-12-18T12:46:39;35.55;;;17.55;;
46705;SDS011;33519;50.712;7.124;2022-12-18T12:49:12;31.17;;;17.08;;
46705;SDS011;33519;50.712;7.124;2022-12-18T12:51:45;28.75;;;15.95;;
46705;SDS011;33519;50.712;7.124;2022-12-18T12:54:21;30.40;;;15.80;;
46705;SDS011;33519;50.712;7.124;2022-12-18T12:56:52;31.50;;;17.50;;
46705;SDS011;33519;50.712;7.124;2022-12-18T13:02:23;31.55;;;16.60;;
46705;SDS011;33519;50.712;7.124;2022-12-18T13:07:59;31.92;;;17.45;;
46705;SDS011;33519;50.712;7.124;2022-12-18T13:10:37;26.05;;;13.50;;
46705;SDS011;33519;50.712;7.124;2022-12-18T13:13:10;27.45;;;13.43;;
46705;SDS011;33519;50.712;7.124;2022-12-18T13:16:02;25.65;;;14.25;;
46705;SDS011;33519;50.712;7.124;2022-12-18T13:18:33;31.15;;;18.92;;
46705;SDS011;33519;50.712;7.124;2022-12-18T13:21:02;21.20;;;12.70;;
46705;SDS011;33519;50.712;7.124;2022-12-18T13:23:38;29.08;;;16.02;;
46705;SDS011;33519;50.712;7.124;2022-12-18T13:34:27;23.08;;;12.90;;
46705;SDS011;33519;50.712;7.124;2022-12-18T13:39:57;26.38;;;15.02;;
46705;SDS011;33519;50.712;7.124;2022-12-18T13:42:31;33.03;;;17.15;;
46705;SDS011;33519;50.712;7.124;2022-12-18T13:45:35;32.42;;;16.38;;
46705;SDS011;33519;50.712;7.124;2022-12-18T13:48:16;35.72;;;17.40;;
46705;SDS011;33519;50.712;7.124;2022-12-18T13:50:48;36.55;;;19.88;;
46705;SDS011;33519;50.712;7.124;2022-12-18T13:53:20;31.23;;;16.73;;
46705;SDS011;33519;50.712;7.124;2022-12-18T13:55:50;35.33;;;19.58;;
46705;SDS011;33519;50.712;7.124;2022-12-18T13:58:18;32.63;;;18.42;;
46705;SDS011;33519;50.712;7.124;2022-12-18T14:00:45;36.38;;;17.83;;
46705;SDS011;33519;50.712;7.124;2022-12-18T14:03:26;35.10;;;19.55;;
46705;SDS011;33519;50.712;7.124;2022-12-18T14:06:02;35.90;;;18.85;;
46705;SDS011;33519;50.712;7.124;2022-12-18T14:08:39;29.77;;;17.42;;
46705;SDS011;33519;50.712;7.124;2022-12-18T14:11:18;31.95;;;17.95;;
46705;SDS011;33519;50.712;7.124;2022-12-18T14:13:48;23.77;;;12.38;;
46705;SDS011;33519;50.712;7.124;2022-12-18T14:16:16;27.38;;;15.93;;
46705;SDS011;33519;50.712;7.124;2022-12-18T14:18:56;34.30;;;17.83;;
46705;SDS011;33519;50.712;7.124;2022-12-18T14:21:40;31.55;;;16.83;;
46705;SDS011;33519;50.712;7.124;2022-12-18T14:24:17;28.15;;;16.40;;
46705;SDS011;33519;50.712;7.124;2022-12-18T14:26:49;40.63;;;14.70;;
46705;SDS011;33519;50.712;7.124;2022-12-18T14:29:21;29.00;;;16.75;;
46705;SDS011;33519;50.712;7.124;2022-12-18T14:34:47;44.30;;;19.00;;
46705;SDS011;33519;50.712;7.124;2022-12-18T14:37:20;23.00;;;14.98;;
46705;SDS011;33519;50.712;7.124;2022-12-18T14:40:11;34.15;;;17.13;;
46705;SDS011;33519;50.712;7.124;2022-12-18T14:42:38;25.27;;;14.48;;
46705;SDS011;33519;50.712;7.124;2022-12-18T14:48:11;31.77;;;17.45;;
46705;SDS011;33519;50.712;7.124;2022-12-18T14:51:22;37.03;;;18.25;;
46705;SDS011;33519;50.712;7.124;2022-12-18T14:53:44;35.78;;;17.95;;
46705;SDS011;33519;50.712;7.124;2022-12-18T14:56:24;32.30;;;18.40;;
46705;SDS011;33519;50.712;7.124;2022-12-18T15:01:22;25.17;;;15.02;;
46705;SDS011;33519;50.712;7.124;2022-12-18T15:03:54;26.17;;;14.65;;
46705;SDS011;33519;50.712;7.124;2022-12-18T15:06:30;37.50;;;20.50;;
46705;SDS011;33519;50.712;7.124;2022-12-18T15:09:00;31.02;;;16.73;;
46705;SDS011;33519;50.712;7.124;2022-12-18T15:11:34;31.83;;;17.50;;
46705;SDS011;33519;50.712;7.124;2022-12-18T15:16:56;28.57;;;16.43;;
46705;SDS011;33519;50.712;7.124;2022-12-18T15:19:32;36.40;;;17.30;;
46705;SDS011;33519;50.712;7.124;2022-12-18T15:22:20;33.10;;;14.32;;
46705;SDS011;33519;50.712;7.124;2022-12-18T15:24:48;35.72;;;17.98;;
46705;SDS011;33519;50.712;7.124;2022-12-18T15:32:34;39.25;;;18.40;;
46705;SDS011;33519;50.712;7.124;2022-12-18T15:37:35;34.25;;;20.58;;
46705;SDS011;33519;50.712;7.124;2022-12-18T15:40:03;30.98;;;16.13;;
46705;SDS011;33519;50.712;7.124;2022-12-18T15:42:30;27.70;;;13.57;;
46705;SDS011;33519;50.712;7.124;2022-12-18T15:45:15;36.55;;;18.85;;
46705;SDS011;33519;50.712;7.124;2022-12-18T15:47:46;32.17;;;17.67;;
46705;SDS011;33519;50.712;7.124;2022-12-18T15:50:13;33.77;;;17.47;;
46705;SDS011;33519;50.712;7.124;2022-12-18T15:52:42;35.47;;;18.75;;
46705;SDS011;33519;50.712;7.124;2022-12-18T15:55:11;32.95;;;16.65;;
46705;SDS011;33519;50.712;7.124;2022-12-18T15:58:01;42.40;;;21.58;;
46705;SDS011;33519;50.712;7.124;2022-12-18T16:00:27;28.75;;;16.40;;
46705;SDS011;33519;50.712;7.124;2022-12-18T16:02:54;38.30;;;18.80;;
46705;SDS011;33519;50.712;7.124;2022-12-18T16:05:21;33.30;;;18.48;;
46705;SDS011;33519;50.712;7.124;2022-12-18T16:07:49;27.08;;;15.52;;
46705;SDS011;33519;50.712;7.124;2022-12-18T16:10:15;34.42;;;17.23;;
46705;SDS011;33519;50.712;7.124;2022-12-18T16:12:42;32.67;;;18.70;;
46705;SDS011;33519;50.712;7.124;2022-12-18T16:15:10;33.75;;;16.48;;
46705;SDS011;33519;50.712;7.124;2022-12-18T16:17:42;44.83;;;21.23;;
46705;SDS011;33519;50.712;7.124;2022-12-18T16:20:13;27.38;;;16.42;;
46705;SDS011;33519;50.712;7.124;2022-12-18T16:22:41;28.65;;;15.30;;
46705;SDS011;33519;50.712;7.124;2022-12-18T16:25:16;34.55;;;18.10;;
46705;SDS011;33519;50.712;7.124;2022-12-18T16:27:45;25.92;;;16.08;;
46705;SDS011;33519;50.712;7.124;2022-12-18T16:30:14;29.88;;;16.58;;
46705;SDS011;33519;50.712;7.124;2022-12-18T16:32:43;37.20;;;20.98;;
46705;SDS011;33519;50.712;7.124;2022-12-18T16:35:10;35.17;;;17.88;;
46705;SDS011;33519;50.712;7.124;2022-12-18T16:37:39;41.85;;;20.70;;
46705;SDS011;33519;50.712;7.124;2022-12-18T16:40:07;35.13;;;17.83;;
46705;SDS011;33519;50.712;7.124;2022-12-18T16:45:07;50.00;;;25.92;;
46705;SDS011;33519;50.712;7.124;2022-12-18T16:47:35;44.38;;;21.30;;
46705;SDS011;33519;50.712;7.124;2022-12-18T16:50:03;39.00;;;21.20;;
46705;SDS011;33519;50.712;7.124;2022-12-18T16:52:30;31.40;;;17.30;;
46705;SDS011;33519;50.712;7.124;2022-12-18T16:54:57;35.60;;;20.25;;